sensor_id;sensor_type;location;lat;lon;timestamp;P1;durP1;ratioP1;P2;durP2;ratioP2
24635;SDS011;12772;49.794;10.024;2023-05-23T00:02:53;6.90;;;6.30;;
24635;SDS011;12772;49.794;10.024;2023-05-23T00:06:55;7.70;;;7.00;;
24635;SDS011;12772;49.794;10.024;2023-05-23T00:10:58;8.98;;;7.22;;
24635;SDS011;12772;49.794;10.024;2023-05-23T00:15:00;8.40;;;7.10;;
24635;SDS011;12772;49.794;10.024;2023-05-23T00:19:02;7.70;;;7.00;;
24635;SDS011;12772;49.794;10.024;2023-05-23T00:23:05;7.82;;;7.03;;
24635;SDS011;12772;49.794;10.024;2023-05-23T00:27:08;7.45;;;6.80;;
24635;SDS011;12772;49.794;10.024;2023-05-23T00:31:10;8.63;;;7.15;;
24635;SDS011;12772;49.794;10.024;2023-05-23T00:35:12;7.43;;;6.82;;
24635;SDS011;12772;49.794;10.024;2023-05-23T00:39:14;7.55;;;6.95;;
24635;SDS011;12772;49.794;10.024;2023-05-23T00:43:19;7.82;;;7.13;;
24635;SDS011;12772;49.794;10.024;2023-05-23T00:47:22;8.00;;;7.30;;
24635;SDS011;12772;49.794;10.024;2023-05-23T00:51:24;8.27;;;7.50;;
24635;SDS011;12772;49.794;10.024;2023-05-23T00:55:27;8.25;;;7.45;;
24635;SDS011;12772;49.794;10.024;2023-05-23T00:59:29;8.80;;;7.90;;
24635;SDS011;12772;49.794;10.024;2023-05-23T01:03:32;8.52;;;7.20;;
24635;SDS011;12772;49.794;10.024;2023-05-23T01:07:34;7.60;;;7.00;;
24635;SDS011;12772;49.794;10.024;2023-05-23T01:12:24;8.15;;;7.35;;
24635;SDS011;12772;49.794;10.024;2023-05-23T01:20:21;8.18;;;7.45;;
24635;SDS011;12772;49.794;10.024;2023-05-23T01:24:31;8.13;;;7.30;;
24635;SDS011;12772;49.794;10.024;2023-05-23T01:28:44;8.73;;;8.00;;
24635;SDS011;12772;49.794;10.024;2023-05-23T01:32:49;8.10;;;7.35;;
24635;SDS011;12772;49.794;10.024;2023-05-23T01:36:54;7.95;;;7.25;;
24635;SDS011;12772;49.794;10.024;2023-05-23T01:40:56;8.80;;;8.00;;
24635;SDS011;12772;49.794;10.024;2023-05-23T01:44:59;8.95;;;7.97;;
24635;SDS011;12772;49.794;10.024;2023-05-23T01:49:02;8.80;;;8.00;;
24635;SDS011;12772;49.794;10.024;2023-05-23T01:53:06;8.43;;;7.60;;
24635;SDS011;12772;49.794;10.024;2023-05-23T01:57:09;8.68;;;7.78;;
24635;SDS011;12772;49.794;10.024;2023-05-23T02:01:12;8.00;;;7.30;;
24635;SDS011;12772;49.794;10.024;2023-05-23T02:05:14;9.40;;;8.38;;
24635;SDS011;12772;49.794;10.024;2023-05-23T02:09:16;8.65;;;7.90;;
24635;SDS011;12772;49.794;10.024;2023-05-23T02:13:19;9.88;;;8.98;;
24635;SDS011;12772;49.794;10.024;2023-05-23T02:17:21;9.13;;;8.32;;
24635;SDS011;12772;49.794;10.024;2023-05-23T02:21:23;9.18;;;8.27;;
24635;SDS011;12772;49.794;10.024;2023-05-23T02:25:25;9.00;;;8.30;;
24635;SDS011;12772;49.794;10.024;2023-05-23T02:29:28;9.50;;;8.57;;
24635;SDS011;12772;49.794;10.024;2023-05-23T02:33:30;8.90;;;8.00;;
24635;SDS011;12772;49.794;10.024;2023-05-23T02:37:32;9.15;;;8.45;;
24635;SDS011;12772;49.794;10.024;2023-05-23T02:41:35;8.32;;;7.63;;
24635;SDS011;12772;49.794;10.024;2023-05-23T02:45:37;7.97;;;7.28;;
24635;SDS011;12772;49.794;10.024;2023-05-23T02:49:39;8.40;;;7.65;;
24635;SDS011;12772;49.794;10.024;2023-05-23T02:53:41;9.05;;;8.15;;
24635;SDS011;12772;49.794;10.024;2023-05-23T02:57:44;8.43;;;7.72;;
24635;SDS011;12772;49.794;10.024;2023-05-23T03:01:46;8.98;;;8.13;;
24635;SDS011;12772;49.794;10.024;2023-05-23T03:05:48;8.32;;;7.45;;
24635;SDS011;12772;49.794;10.024;2023-05-23T03:09:50;10.25;;;7.82;;
24635;SDS011;12772;49.794;10.024;2023-05-23T03:13:52;7.82;;;7.20;;
24635;SDS011;12772;49.794;10.024;2023-05-23T03:17:57;8.57;;;7.78;;
24635;SDS011;12772;49.794;10.024;2023-05-23T03:22:00;8.13;;;7.35;;
24635;SDS011;12772;49.794;10.024;2023-05-23T03:26:02;8.52;;;7.82;;
24635;SDS011;12772;49.794;10.024;2023-05-23T03:30:06;8.65;;;7.78;;
24635;SDS011;12772;49.794;10.024;2023-05-23T03:34:09;9.05;;;8.25;;
24635;SDS011;12772;49.794;10.024;2023-05-23T03:38:12;8.85;;;8.05;;
24635;SDS011;12772;49.794;10.024;2023-05-23T03:42:15;8.38;;;7.65;;
24635;SDS011;12772;49.794;10.024;2023-05-23T03:46:18;8.68;;;7.88;;
24635;SDS011;12772;49.794;10.024;2023-05-23T03:50:20;9.50;;;8.65;;
24635;SDS011;12772;49.794;10.024;2023-05-23T03:54:22;9.38;;;8.48;;
24635;SDS011;12772;49.794;10.024;2023-05-23T03:58:25;9.27;;;8.43;;
24635;SDS011;12772;49.794;10.024;2023-05-23T04:02:27;9.63;;;8.80;;
24635;SDS011;12772;49.794;10.024;2023-05-23T04:06:29;10.50;;;9.50;;
24635;SDS011;12772;49.794;10.024;2023-05-23T04:10:33;9.68;;;8.80;;
24635;SDS011;12772;49.794;10.024;2023-05-23T04:14:35;9.63;;;8.82;;
24635;SDS011;12772;49.794;10.024;2023-05-23T04:18:38;9.65;;;8.75;;
24635;SDS011;12772;49.794;10.024;2023-05-23T04:22:40;9.77;;;8.77;;
24635;SDS011;12772;49.794;10.024;2023-05-23T04:26:42;9.23;;;8.43;;
24635;SDS011;12772;49.794;10.024;2023-05-23T04:30:45;9.07;;;8.18;;
24635;SDS011;12772;49.794;10.024;2023-05-23T04:34:48;9.70;;;8.90;;
24635;SDS011;12772;49.794;10.024;2023-05-23T04:38:51;9.25;;;8.45;;
24635;SDS011;12772;49.794;10.024;2023-05-23T04:42:53;10.48;;;9.45;;
24635;SDS011;12772;49.794;10.024;2023-05-23T04:47:00;9.45;;;8.65;;
24635;SDS011;12772;49.794;10.024;2023-05-23T04:51:03;10.60;;;9.32;;
24635;SDS011;12772;49.794;10.024;2023-05-23T04:55:07;10.38;;;9.40;;
24635;SDS011;12772;49.794;10.024;2023-05-23T04:59:09;9.00;;;8.23;;
24635;SDS011;12772;49.794;10.024;2023-05-23T05:03:12;10.35;;;9.40;;
24635;SDS011;12772;49.794;10.024;2023-05-23T05:07:15;9.75;;;8.77;;
24635;SDS011;12772;49.794;10.024;2023-05-23T05:11:17;11.18;;;10.05;;
24635;SDS011;12772;49.794;10.024;2023-05-23T05:15:20;10.57;;;9.55;;
24635;SDS011;12772;49.794;10.024;2023-05-23T05:19:23;10.10;;;9.18;;
24635;SDS011;12772;49.794;10.024;2023-05-23T05:23:26;10.48;;;9.48;;
24635;SDS011;12772;49.794;10.024;2023-05-23T05:27:29;11.10;;;10.10;;
24635;SDS011;12772;49.794;10.024;2023-05-23T05:31:31;11.63;;;10.63;;
24635;SDS011;12772;49.794;10.024;2023-05-23T05:35:35;11.75;;;10.57;;
24635;SDS011;12772;49.794;10.024;2023-05-23T05:39:37;10.93;;;9.93;;
24635;SDS011;12772;49.794;10.024;2023-05-23T05:43:40;13.18;;;11.98;;
24635;SDS011;12772;49.794;10.024;2023-05-23T05:47:43;13.00;;;11.77;;
24635;SDS011;12772;49.794;10.024;2023-05-23T05:51:48;12.75;;;11.52;;
24635;SDS011;12772;49.794;10.024;2023-05-23T05:55:52;13.35;;;12.05;;
24635;SDS011;12772;49.794;10.024;2023-05-23T05:59:55;13.52;;;12.18;;
24635;SDS011;12772;49.794;10.024;2023-05-23T06:03:57;13.90;;;12.68;;
24635;SDS011;12772;49.794;10.024;2023-05-23T06:08:02;12.55;;;11.40;;
24635;SDS011;12772;49.794;10.024;2023-05-23T06:12:06;12.48;;;11.38;;
24635;SDS011;12772;49.794;10.024;2023-05-23T06:16:09;12.13;;;10.90;;
24635;SDS011;12772;49.794;10.024;2023-05-23T06:20:11;11.88;;;10.35;;
24635;SDS011;12772;49.794;10.024;2023-05-23T06:24:13;11.07;;;9.98;;
24635;SDS011;12772;49.794;10.024;2023-05-23T06:28:16;10.63;;;9.43;;
24635;SDS011;12772;49.794;10.024;2023-05-23T06:32:18;10.80;;;9.60;;
24635;SDS011;12772;49.794;10.024;2023-05-23T06:36:23;10.98;;;9.88;;
24635;SDS011;12772;49.794;10.024;2023-05-23T06:40:25;10.52;;;9.35;;
24635;SDS011;12772;49.794;10.024;2023-05-23T06:44:30;9.23;;;8.32;;
24635;SDS011;12772;49.794;10.024;2023-05-23T06:48:32;8.57;;;7.88;;
24635;SDS011;12772;49.794;10.024;2023-05-23T06:52:34;8.48;;;7.72;;
24635;SDS011;12772;49.794;10.024;2023-05-23T06:56:36;8.23;;;7.53;;
24635;SDS011;12772;49.794;10.024;2023-05-23T07:00:40;9.00;;;8.10;;
24635;SDS011;12772;49.794;10.024;2023-05-23T07:04:42;10.27;;;7.25;;
24635;SDS011;12772;49.794;10.024;2023-05-23T07:08:44;7.38;;;6.78;;
24635;SDS011;12772;49.794;10.024;2023-05-23T07:12:47;7.30;;;6.60;;
24635;SDS011;12772;49.794;10.024;2023-05-23T07:16:49;6.75;;;6.15;;
24635;SDS011;12772;49.794;10.024;2023-05-23T07:20:51;6.65;;;6.13;;
24635;SDS011;12772;49.794;10.024;2023-05-23T07:24:53;6.90;;;6.30;;
24635;SDS011;12772;49.794;10.024;2023-05-23T07:28:55;6.75;;;5.78;;
24635;SDS011;12772;49.794;10.024;2023-05-23T07:32:58;5.72;;;5.32;;
24635;SDS011;12772;49.794;10.024;2023-05-23T07:37:01;6.10;;;5.57;;
24635;SDS011;12772;49.794;10.024;2023-05-23T07:41:03;6.15;;;5.50;;
24635;SDS011;12772;49.794;10.024;2023-05-23T07:45:05;6.60;;;5.95;;
24635;SDS011;12772;49.794;10.024;2023-05-23T07:49:08;5.85;;;5.35;;
24635;SDS011;12772;49.794;10.024;2023-05-23T07:53:10;6.55;;;4.85;;
24635;SDS011;12772;49.794;10.024;2023-05-23T07:57:12;5.10;;;4.60;;
24635;SDS011;12772;49.794;10.024;2023-05-23T08:01:18;5.38;;;4.57;;
24635;SDS011;12772;49.794;10.024;2023-05-23T08:05:24;4.50;;;4.07;;
24635;SDS011;12772;49.794;10.024;2023-05-23T08:09:28;5.75;;;4.38;;
24635;SDS011;12772;49.794;10.024;2023-05-23T08:13:30;5.10;;;4.60;;
24635;SDS011;12772;49.794;10.024;2023-05-23T08:17:32;4.18;;;3.90;;
24635;SDS011;12772;49.794;10.024;2023-05-23T08:21:34;4.40;;;4.10;;
24635;SDS011;12772;49.794;10.024;2023-05-23T08:25:37;5.30;;;4.47;;
24635;SDS011;12772;49.794;10.024;2023-05-23T08:29:39;5.43;;;5.00;;
24635;SDS011;12772;49.794;10.024;2023-05-23T08:33:42;4.72;;;4.32;;
24635;SDS011;12772;49.794;10.024;2023-05-23T08:37:44;4.45;;;4.15;;
24635;SDS011;12772;49.794;10.024;2023-05-23T08:41:46;4.72;;;3.63;;
24635;SDS011;12772;49.794;10.024;2023-05-23T08:45:49;4.35;;;3.97;;
24635;SDS011;12772;49.794;10.024;2023-05-23T08:49:54;4.07;;;3.78;;
24635;SDS011;12772;49.794;10.024;2023-05-23T08:53:57;3.80;;;3.50;;
24635;SDS011;12772;49.794;10.024;2023-05-23T08:58:00;4.20;;;3.90;;
24635;SDS011;12772;49.794;10.024;2023-05-23T09:02:03;3.35;;;3.15;;
24635;SDS011;12772;49.794;10.024;2023-05-23T09:06:13;3.55;;;3.35;;
24635;SDS011;12772;49.794;10.024;2023-05-23T09:10:17;4.35;;;3.03;;
24635;SDS011;12772;49.794;10.024;2023-05-23T09:14:20;3.22;;;3.03;;
24635;SDS011;12772;49.794;10.024;2023-05-23T09:18:23;2.80;;;2.70;;
24635;SDS011;12772;49.794;10.024;2023-05-23T09:22:27;2.80;;;2.63;;
24635;SDS011;12772;49.794;10.024;2023-05-23T09:26:29;2.95;;;2.60;;
24635;SDS011;12772;49.794;10.024;2023-05-23T09:30:33;3.08;;;2.88;;
24635;SDS011;12772;49.794;10.024;2023-05-23T09:35:21;2.80;;;2.60;;
24635;SDS011;12772;49.794;10.024;2023-05-23T09:39:03;4.60;;;2.60;;
24635;SDS011;12772;49.794;10.024;2023-05-23T09:43:05;2.88;;;2.67;;
24635;SDS011;12772;49.794;10.024;2023-05-23T09:47:08;4.90;;;2.28;;
24635;SDS011;12772;49.794;10.024;2023-05-23T09:51:10;4.25;;;2.90;;
24635;SDS011;12772;49.794;10.024;2023-05-23T09:55:12;3.47;;;2.40;;
24635;SDS011;12772;49.794;10.024;2023-05-23T09:59:15;3.05;;;2.75;;
24635;SDS011;12772;49.794;10.024;2023-05-23T10:03:26;2.72;;;2.53;;
24635;SDS011;12772;49.794;10.024;2023-05-23T10:07:41;2.72;;;2.58;;
24635;SDS011;12772;49.794;10.024;2023-05-23T10:16:08;3.78;;;2.95;;
24635;SDS011;12772;49.794;10.024;2023-05-23T10:20:25;2.42;;;2.30;;
24635;SDS011;12772;49.794;10.024;2023-05-23T10:24:31;3.67;;;2.42;;
24635;SDS011;12772;49.794;10.024;2023-05-23T10:28:34;2.38;;;2.22;;
24635;SDS011;12772;49.794;10.024;2023-05-23T10:32:38;2.60;;;2.40;;
24635;SDS011;12772;49.794;10.024;2023-05-23T10:36:47;2.40;;;2.25;;
24635;SDS011;12772;49.794;10.024;2023-05-23T10:41:11;2.78;;;2.28;;
24635;SDS011;12772;49.794;10.024;2023-05-23T10:45:29;2.75;;;2.53;;
24635;SDS011;12772;49.794;10.024;2023-05-23T10:49:52;2.45;;;2.25;;
24635;SDS011;12772;49.794;10.024;2023-05-23T10:53:55;2.38;;;2.20;;
24635;SDS011;12772;49.794;10.024;2023-05-23T10:58:08;2.20;;;2.00;;
24635;SDS011;12772;49.794;10.024;2023-05-23T11:02:14;2.13;;;2.03;;
24635;SDS011;12772;49.794;10.024;2023-05-23T11:11:02;2.65;;;2.45;;
24635;SDS011;12772;49.794;10.024;2023-05-23T11:23:28;2.47;;;2.30;;
24635;SDS011;12772;49.794;10.024;2023-05-23T11:27:44;2.10;;;2.00;;
24635;SDS011;12772;49.794;10.024;2023-05-23T11:31:47;2.67;;;2.45;;
24635;SDS011;12772;49.794;10.024;2023-05-23T11:35:49;2.83;;;2.60;;
24635;SDS011;12772;49.794;10.024;2023-05-23T11:39:52;2.90;;;2.70;;
24635;SDS011;12772;49.794;10.024;2023-05-23T11:43:55;2.13;;;1.92;;
24635;SDS011;12772;49.794;10.024;2023-05-23T11:48:05;2.33;;;2.15;;
24635;SDS011;12772;49.794;10.024;2023-05-23T11:52:08;2.20;;;2.10;;
24635;SDS011;12772;49.794;10.024;2023-05-23T11:56:10;2.20;;;2.10;;
24635;SDS011;12772;49.794;10.024;2023-05-23T12:00:15;2.67;;;2.20;;
24635;SDS011;12772;49.794;10.024;2023-05-23T12:04:18;2.17;;;2.08;;
24635;SDS011;12772;49.794;10.024;2023-05-23T12:08:20;4.15;;;2.28;;
24635;SDS011;12772;49.794;10.024;2023-05-23T12:12:24;3.30;;;2.10;;
24635;SDS011;12772;49.794;10.024;2023-05-23T12:16:27;3.28;;;2.35;;
24635;SDS011;12772;49.794;10.024;2023-05-23T12:20:30;2.05;;;1.95;;
24635;SDS011;12772;49.794;10.024;2023-05-23T12:24:34;2.45;;;2.25;;
24635;SDS011;12772;49.794;10.024;2023-05-23T12:28:37;2.40;;;2.20;;
24635;SDS011;12772;49.794;10.024;2023-05-23T12:32:42;2.45;;;2.20;;
24635;SDS011;12772;49.794;10.024;2023-05-23T12:36:47;2.78;;;2.05;;
24635;SDS011;12772;49.794;10.024;2023-05-23T12:41:06;2.50;;;2.30;;
24635;SDS011;12772;49.794;10.024;2023-05-23T12:45:12;2.65;;;2.13;;
24635;SDS011;12772;49.794;10.024;2023-05-23T12:49:16;2.72;;;2.38;;
24635;SDS011;12772;49.794;10.024;2023-05-23T12:53:18;2.45;;;2.35;;
24635;SDS011;12772;49.794;10.024;2023-05-23T12:57:20;2.63;;;2.40;;
24635;SDS011;12772;49.794;10.024;2023-05-23T13:01:23;2.50;;;2.08;;
24635;SDS011;12772;49.794;10.024;2023-05-23T13:05:25;2.75;;;2.00;;
24635;SDS011;12772;49.794;10.024;2023-05-23T13:09:28;2.38;;;2.28;;
24635;SDS011;12772;49.794;10.024;2023-05-23T13:13:30;2.80;;;2.03;;
24635;SDS011;12772;49.794;10.024;2023-05-23T13:17:33;2.55;;;2.08;;
24635;SDS011;12772;49.794;10.024;2023-05-23T13:21:35;2.33;;;2.13;;
24635;SDS011;12772;49.794;10.024;2023-05-23T13:25:38;2.20;;;2.05;;
24635;SDS011;12772;49.794;10.024;2023-05-23T13:29:48;2.03;;;1.92;;
24635;SDS011;12772;49.794;10.024;2023-05-23T13:33:50;2.15;;;2.00;;
24635;SDS011;12772;49.794;10.024;2023-05-23T13:37:52;1.65;;;1.55;;
24635;SDS011;12772;49.794;10.024;2023-05-23T13:41:54;2.28;;;1.55;;
24635;SDS011;12772;49.794;10.024;2023-05-23T13:45:57;1.42;;;1.33;;
24635;SDS011;12772;49.794;10.024;2023-05-23T13:50:01;1.50;;;1.40;;
24635;SDS011;12772;49.794;10.024;2023-05-23T13:54:06;1.50;;;1.40;;
24635;SDS011;12772;49.794;10.024;2023-05-23T13:58:09;1.92;;;1.83;;
24635;SDS011;12772;49.794;10.024;2023-05-23T14:02:11;1.80;;;1.70;;
24635;SDS011;12772;49.794;10.024;2023-05-23T14:06:13;1.88;;;1.77;;
24635;SDS011;12772;49.794;10.024;2023-05-23T14:10:15;1.95;;;1.50;;
24635;SDS011;12772;49.794;10.024;2023-05-23T14:14:18;1.60;;;1.50;;
24635;SDS011;12772;49.794;10.024;2023-05-23T14:18:20;3.30;;;1.83;;
24635;SDS011;12772;49.794;10.024;2023-05-23T14:22:25;1.70;;;1.60;;
24635;SDS011;12772;49.794;10.024;2023-05-23T14:26:33;1.60;;;1.50;;
24635;SDS011;12772;49.794;10.024;2023-05-23T14:30:36;1.80;;;1.70;;
24635;SDS011;12772;49.794;10.024;2023-05-23T14:34:38;1.70;;;1.60;;
24635;SDS011;12772;49.794;10.024;2023-05-23T14:38:41;1.50;;;1.40;;
24635;SDS011;12772;49.794;10.024;2023-05-23T14:42:44;2.03;;;1.55;;
24635;SDS011;12772;49.794;10.024;2023-05-23T14:46:46;1.65;;;1.55;;
24635;SDS011;12772;49.794;10.024;2023-05-23T14:50:49;1.75;;;1.60;;
24635;SDS011;12772;49.794;10.024;2023-05-23T14:54:51;3.03;;;1.80;;
24635;SDS011;12772;49.794;10.024;2023-05-23T14:58:56;1.30;;;1.30;;
24635;SDS011;12772;49.794;10.024;2023-05-23T15:03:03;1.30;;;1.30;;
24635;SDS011;12772;49.794;10.024;2023-05-23T15:07:08;1.50;;;1.42;;
24635;SDS011;12772;49.794;10.024;2023-05-23T15:11:10;1.40;;;1.30;;
24635;SDS011;12772;49.794;10.024;2023-05-23T15:15:13;1.60;;;1.50;;
24635;SDS011;12772;49.794;10.024;2023-05-23T15:19:22;2.63;;;1.70;;
24635;SDS011;12772;49.794;10.024;2023-05-23T15:23:24;2.28;;;1.65;;
24635;SDS011;12772;49.794;10.024;2023-05-23T15:27:28;1.75;;;1.65;;
24635;SDS011;12772;49.794;10.024;2023-05-23T15:31:33;1.85;;;1.75;;
24635;SDS011;12772;49.794;10.024;2023-05-23T15:35:35;1.70;;;1.60;;
24635;SDS011;12772;49.794;10.024;2023-05-23T15:39:37;1.67;;;1.40;;
24635;SDS011;12772;49.794;10.024;2023-05-23T15:43:42;1.38;;;1.10;;
24635;SDS011;12772;49.794;10.024;2023-05-23T15:47:45;1.77;;;1.40;;
24635;SDS011;12772;49.794;10.024;2023-05-23T15:51:47;1.65;;;1.55;;
24635;SDS011;12772;49.794;10.024;2023-05-23T15:55:53;1.90;;;1.80;;
24635;SDS011;12772;49.794;10.024;2023-05-23T15:59:56;3.03;;;1.70;;
24635;SDS011;12772;49.794;10.024;2023-05-23T16:03:59;1.90;;;1.30;;
24635;SDS011;12772;49.794;10.024;2023-05-23T16:08:01;1.65;;;1.55;;
24635;SDS011;12772;49.794;10.024;2023-05-23T16:12:04;1.60;;;1.50;;
24635;SDS011;12772;49.794;10.024;2023-05-23T16:16:06;1.55;;;1.55;;
24635;SDS011;12772;49.794;10.024;2023-05-23T16:20:08;1.80;;;1.70;;
24635;SDS011;12772;49.794;10.024;2023-05-23T16:24:11;1.85;;;1.70;;
24635;SDS011;12772;49.794;10.024;2023-05-23T16:28:16;1.88;;;1.77;;
24635;SDS011;12772;49.794;10.024;2023-05-23T16:32:18;1.85;;;1.77;;
24635;SDS011;12772;49.794;10.024;2023-05-23T16:36:21;2.10;;;2.00;;
24635;SDS011;12772;49.794;10.024;2023-05-23T16:40:23;2.15;;;2.05;;
24635;SDS011;12772;49.794;10.024;2023-05-23T16:44:25;2.40;;;2.30;;
24635;SDS011;12772;49.794;10.024;2023-05-23T16:48:29;2.88;;;2.25;;
24635;SDS011;12772;49.794;10.024;2023-05-23T16:52:31;2.65;;;2.45;;
24635;SDS011;12772;49.794;10.024;2023-05-23T16:56:36;2.38;;;2.28;;
24635;SDS011;12772;49.794;10.024;2023-05-23T17:00:38;4.10;;;2.80;;
24635;SDS011;12772;49.794;10.024;2023-05-23T17:04:42;2.35;;;2.20;;
24635;SDS011;12772;49.794;10.024;2023-05-23T17:08:47;2.53;;;2.42;;
24635;SDS011;12772;49.794;10.024;2023-05-23T17:12:49;3.38;;;2.75;;
24635;SDS011;12772;49.794;10.024;2023-05-23T17:16:51;5.90;;;4.80;;
24635;SDS011;12772;49.794;10.024;2023-05-23T17:20:53;2.80;;;2.60;;
24635;SDS011;12772;49.794;10.024;2023-05-23T17:24:59;2.60;;;2.40;;
24635;SDS011;12772;49.794;10.024;2023-05-23T17:29:01;2.63;;;2.42;;
24635;SDS011;12772;49.794;10.024;2023-05-23T17:33:03;2.53;;;2.42;;
24635;SDS011;12772;49.794;10.024;2023-05-23T17:37:06;3.13;;;2.83;;
24635;SDS011;12772;49.794;10.024;2023-05-23T17:41:10;2.80;;;2.60;;
24635;SDS011;12772;49.794;10.024;2023-05-23T17:45:13;2.95;;;2.67;;
24635;SDS011;12772;49.794;10.024;2023-05-23T17:49:16;2.90;;;2.70;;
24635;SDS011;12772;49.794;10.024;2023-05-23T17:53:18;3.00;;;2.72;;
24635;SDS011;12772;49.794;10.024;2023-05-23T17:57:20;3.30;;;2.50;;
24635;SDS011;12772;49.794;10.024;2023-05-23T18:01:23;2.78;;;2.58;;
24635;SDS011;12772;49.794;10.024;2023-05-23T18:05:25;2.60;;;2.40;;
24635;SDS011;12772;49.794;10.024;2023-05-23T18:09:27;3.15;;;2.85;;
24635;SDS011;12772;49.794;10.024;2023-05-23T18:13:30;2.90;;;2.70;;
24635;SDS011;12772;49.794;10.024;2023-05-23T18:17:32;3.92;;;2.85;;
24635;SDS011;12772;49.794;10.024;2023-05-23T18:21:34;3.00;;;2.80;;
24635;SDS011;12772;49.794;10.024;2023-05-23T18:25:37;2.83;;;2.55;;
24635;SDS011;12772;49.794;10.024;2023-05-23T18:29:39;2.80;;;2.60;;
24635;SDS011;12772;49.794;10.024;2023-05-23T18:33:41;2.55;;;2.42;;
24635;SDS011;12772;49.794;10.024;2023-05-23T18:37:43;2.75;;;2.55;;
24635;SDS011;12772;49.794;10.024;2023-05-23T18:41:46;3.55;;;2.80;;
24635;SDS011;12772;49.794;10.024;2023-05-23T18:45:48;3.60;;;2.92;;
24635;SDS011;12772;49.794;10.024;2023-05-23T18:49:51;2.90;;;2.63;;
24635;SDS011;12772;49.794;10.024;2023-05-23T18:53:53;2.90;;;2.53;;
24635;SDS011;12772;49.794;10.024;2023-05-23T18:57:55;3.33;;;3.03;;
24635;SDS011;12772;49.794;10.024;2023-05-23T19:01:58;6.18;;;5.07;;
24635;SDS011;12772;49.794;10.024;2023-05-23T19:06:01;5.95;;;3.88;;
24635;SDS011;12772;49.794;10.024;2023-05-23T19:10:04;3.50;;;3.10;;
24635;SDS011;12772;49.794;10.024;2023-05-23T19:14:06;6.68;;;3.20;;
24635;SDS011;12772;49.794;10.024;2023-05-23T19:18:08;3.10;;;2.80;;
24635;SDS011;12772;49.794;10.024;2023-05-23T19:22:11;3.22;;;2.92;;
24635;SDS011;12772;49.794;10.024;2023-05-23T19:26:13;3.80;;;2.80;;
24635;SDS011;12772;49.794;10.024;2023-05-23T19:30:16;3.45;;;3.10;;
24635;SDS011;12772;49.794;10.024;2023-05-23T19:34:18;3.10;;;2.80;;
24635;SDS011;12772;49.794;10.024;2023-05-23T19:38:20;3.40;;;2.58;;
24635;SDS011;12772;49.794;10.024;2023-05-23T19:42:23;3.00;;;2.70;;
24635;SDS011;12772;49.794;10.024;2023-05-23T19:46:25;5.75;;;3.42;;
24635;SDS011;12772;49.794;10.024;2023-05-23T19:50:28;3.28;;;2.80;;
24635;SDS011;12772;49.794;10.024;2023-05-23T19:54:30;3.45;;;2.75;;
24635;SDS011;12772;49.794;10.024;2023-05-23T19:58:33;5.32;;;3.15;;
24635;SDS011;12772;49.794;10.024;2023-05-23T20:02:35;4.88;;;3.05;;
24635;SDS011;12772;49.794;10.024;2023-05-23T20:06:38;5.03;;;3.10;;
24635;SDS011;12772;49.794;10.024;2023-05-23T20:10:41;3.42;;;2.92;;
24635;SDS011;12772;49.794;10.024;2023-05-23T20:14:43;4.18;;;2.95;;
24635;SDS011;12772;49.794;10.024;2023-05-23T20:18:46;3.22;;;2.92;;
24635;SDS011;12772;49.794;10.024;2023-05-23T20:22:48;5.88;;;2.80;;
24635;SDS011;12772;49.794;10.024;2023-05-23T20:26:50;8.18;;;3.25;;
24635;SDS011;12772;49.794;10.024;2023-05-23T20:30:53;5.55;;;3.10;;
24635;SDS011;12772;49.794;10.024;2023-05-23T20:34:55;8.18;;;3.08;;
24635;SDS011;12772;49.794;10.024;2023-05-23T20:38:57;4.72;;;2.83;;
24635;SDS011;12772;49.794;10.024;2023-05-23T20:42:59;3.42;;;3.13;;
24635;SDS011;12772;49.794;10.024;2023-05-23T20:47:04;3.33;;;3.03;;
24635;SDS011;12772;49.794;10.024;2023-05-23T20:51:06;4.78;;;3.13;;
24635;SDS011;12772;49.794;10.024;2023-05-23T20:55:09;5.53;;;3.45;;
24635;SDS011;12772;49.794;10.024;2023-05-23T20:59:11;4.45;;;3.40;;
24635;SDS011;12772;49.794;10.024;2023-05-23T21:03:16;4.47;;;3.15;;
24635;SDS011;12772;49.794;10.024;2023-05-23T21:07:18;6.57;;;3.10;;
24635;SDS011;12772;49.794;10.024;2023-05-23T21:11:21;6.13;;;2.80;;
24635;SDS011;12772;49.794;10.024;2023-05-23T21:15:23;6.32;;;3.40;;
24635;SDS011;12772;49.794;10.024;2023-05-23T21:19:26;5.38;;;3.03;;
24635;SDS011;12772;49.794;10.024;2023-05-23T21:23:28;7.05;;;3.30;;
24635;SDS011;12772;49.794;10.024;2023-05-23T21:27:31;6.40;;;3.10;;
24635;SDS011;12772;49.794;10.024;2023-05-23T21:31:33;7.38;;;3.10;;
24635;SDS011;12772;49.794;10.024;2023-05-23T21:35:37;5.43;;;2.83;;
24635;SDS011;12772;49.794;10.024;2023-05-23T21:39:42;6.05;;;3.78;;
24635;SDS011;12772;49.794;10.024;2023-05-23T21:43:44;6.30;;;3.40;;
24635;SDS011;12772;49.794;10.024;2023-05-23T21:47:46;7.35;;;3.25;;
24635;SDS011;12772;49.794;10.024;2023-05-23T21:51:50;5.70;;;3.70;;
24635;SDS011;12772;49.794;10.024;2023-05-23T21:55:52;7.05;;;3.35;;
24635;SDS011;12772;49.794;10.024;2023-05-23T21:59:54;8.18;;;3.33;;
24635;SDS011;12772;49.794;10.024;2023-05-23T22:03:56;7.82;;;4.13;;
24635;SDS011;12772;49.794;10.024;2023-05-23T22:07:59;6.47;;;3.88;;
24635;SDS011;12772;49.794;10.024;2023-05-23T22:12:01;4.65;;;4.07;;
24635;SDS011;12772;49.794;10.024;2023-05-23T22:16:04;7.68;;;4.60;;
24635;SDS011;12772;49.794;10.024;2023-05-23T22:20:06;8.48;;;4.93;;
24635;SDS011;12772;49.794;10.024;2023-05-23T22:24:08;10.60;;;5.30;;
24635;SDS011;12772;49.794;10.024;2023-05-23T22:28:11;11.98;;;6.13;;
24635;SDS011;12772;49.794;10.024;2023-05-23T22:32:13;8.93;;;5.53;;
24635;SDS011;12772;49.794;10.024;2023-05-23T22:36:15;10.07;;;5.35;;
24635;SDS011;12772;49.794;10.024;2023-05-23T22:40:17;7.63;;;5.22;;
24635;SDS011;12772;49.794;10.024;2023-05-23T22:44:19;6.80;;;4.82;;
24635;SDS011;12772;49.794;10.024;2023-05-23T22:48:22;8.75;;;5.13;;
24635;SDS011;12772;49.794;10.024;2023-05-23T22:52:25;6.65;;;4.60;;
24635;SDS011;12772;49.794;10.024;2023-05-23T22:56:27;5.30;;;4.40;;
24635;SDS011;12772;49.794;10.024;2023-05-23T23:00:30;7.45;;;4.15;;
24635;SDS011;12772;49.794;10.024;2023-05-23T23:04:32;6.55;;;4.25;;
24635;SDS011;12772;49.794;10.024;2023-05-23T23:08:35;4.68;;;3.95;;
24635;SDS011;12772;49.794;10.024;2023-05-23T23:12:38;7.20;;;4.10;;
24635;SDS011;12772;49.794;10.024;2023-05-23T23:16:41;8.30;;;3.80;;
24635;SDS011;12772;49.794;10.024;2023-05-23T23:20:45;5.88;;;3.63;;
24635;SDS011;12772;49.794;10.024;2023-05-23T23:24:47;7.43;;;4.75;;
24635;SDS011;12772;49.794;10.024;2023-05-23T23:28:49;5.30;;;3.92;;
24635;SDS011;12772;49.794;10.024;2023-05-23T23:32:52;5.05;;;3.38;;
24635;SDS011;12772;49.794;10.024;2023-05-23T23:36:54;5.88;;;3.53;;
24635;SDS011;12772;49.794;10.024;2023-05-23T23:40:56;4.63;;;3.70;;
24635;SDS011;12772;49.794;10.024;2023-05-23T23:44:59;6.20;;;3.33;;
24635;SDS011;12772;49.794;10.024;2023-05-23T23:49:01;6.18;;;3.65;;
24635;SDS011;12772;49.794;10.024;2023-05-23T23:53:03;7.43;;;3.80;;
24635;SDS011;12772;49.794;10.024;2023-05-23T23:57:05;9.23;;;4.00;;
